createdAt,value
2022-12-20T00:01:36.539Z,100.00
2022-12-20T00:04:06.625Z,100.00
2022-12-20T00:06:36.490Z,100.00
2022-12-20T00:09:06.881Z,100.00
2022-12-20T00:11:34.968Z,100.00
2022-12-20T00:14:04.232Z,100.00
2022-12-20T00:16:32.913Z,100.00
2022-12-20T00:19:03.370Z,100.00
2022-12-20T00:21:32.296Z,100.00
2022-12-20T00:24:00.870Z,100.00
2022-12-20T00:26:30.539Z,100.00
2022-12-20T00:28:58.981Z,100.00
2022-12-20T00:31:30.396Z,100.00
2022-12-20T00:34:00.112Z,100.00
2022-12-20T00:36:30.421Z,100.00
2022-12-20T00:38:59.480Z,100.00
2022-12-20T00:41:29.225Z,100.00
2022-12-20T00:43:57.132Z,100.00
2022-12-20T00:46:26.380Z,100.00
2022-12-20T00:48:56.857Z,100.00
2022-12-20T00:51:27.205Z,100.00
2022-12-20T00:53:55.598Z,100.00
2022-12-20T00:56:24.161Z,100.00
2022-12-20T00:58:54.658Z,100.00
2022-12-20T01:01:25.327Z,100.00
2022-12-20T01:03:55.801Z,100.00
2022-12-20T01:06:24.356Z,100.00
2022-12-20T01:08:52.672Z,100.00
2022-12-20T01:11:23.081Z,100.00
2022-12-20T01:13:52.514Z,100.00
2022-12-20T01:16:25.481Z,100.00
2022-12-20T01:18:55.595Z,100.00
2022-12-20T01:21:25.316Z,100.00
2022-12-20T01:23:53.654Z,100.00
2022-12-20T01:26:24.165Z,100.00
2022-12-20T01:28:55.186Z,100.00
2022-12-20T01:31:23.789Z,100.00
2022-12-20T01:33:52.524Z,100.00
2022-12-20T01:36:25.281Z,100.00
2022-12-20T01:38:57.877Z,100.00
2022-12-20T01:41:26.565Z,100.00
2022-12-20T01:43:59.714Z,100.00
2022-12-20T01:46:30.395Z,100.00
2022-12-20T01:49:03.410Z,100.00
2022-12-20T01:51:37.145Z,100.00
2022-12-20T01:54:11.186Z,100.00
2022-12-20T01:56:41.240Z,100.00
2022-12-20T01:59:09.857Z,100.00
2022-12-20T02:01:37.931Z,100.00
2022-12-20T02:04:05.952Z,100.00
2022-12-20T02:06:35.210Z,100.00
2022-12-20T02:09:05.531Z,100.00
2022-12-20T02:11:47.941Z,100.00
2022-12-20T02:14:25.210Z,100.00
2022-12-20T02:16:58.699Z,100.00
2022-12-20T02:19:54.859Z,100.00
2022-12-20T02:22:31.893Z,100.00
2022-12-20T02:25:25.179Z,100.00
2022-12-20T02:28:00.057Z,100.00
2022-12-20T02:30:35.685Z,100.00
2022-12-20T02:33:05.385Z,100.00
2022-12-20T02:35:35.500Z,100.00
2022-12-20T02:38:24.915Z,100.00
2022-12-20T02:40:57.130Z,100.00
2022-12-20T02:43:43.583Z,100.00
2022-12-20T02:46:14.212Z,100.00
2022-12-20T02:48:43.533Z,100.00
2022-12-20T02:51:12.879Z,100.00
2022-12-20T02:53:42.977Z,100.00
2022-12-20T02:56:17.763Z,100.00
2022-12-20T02:58:50.897Z,100.00
2022-12-20T03:01:26.077Z,100.00
2022-12-20T03:03:55.557Z,100.00
2022-12-20T03:06:23.448Z,100.00
2022-12-20T03:08:51.366Z,100.00
2022-12-20T03:11:20.486Z,100.00
2022-12-20T03:13:48.449Z,100.00
2022-12-20T03:16:16.367Z,100.00
2022-12-20T03:18:46.195Z,100.00
2022-12-20T03:21:14.415Z,100.00
2022-12-20T03:23:42.299Z,100.00
2022-12-20T03:26:10.217Z,100.00
2022-12-20T03:28:38.157Z,100.00
2022-12-20T03:31:06.198Z,100.00
2022-12-20T03:33:34.175Z,100.00
2022-12-20T03:36:03.415Z,100.00
2022-12-20T03:38:31.256Z,100.00
2022-12-20T03:40:59.123Z,100.00
2022-12-20T03:43:29.120Z,100.00
2022-12-20T03:45:57.105Z,100.00
2022-12-20T03:48:25.234Z,100.00
2022-12-20T03:50:53.102Z,100.00
2022-12-20T03:53:22.380Z,100.00
2022-12-20T03:55:50.243Z,100.00
2022-12-20T03:58:18.140Z,100.00
2022-12-20T04:00:46.013Z,100.00
2022-12-20T04:03:13.944Z,100.00
2022-12-20T04:05:42.177Z,100.00
2022-12-20T04:08:10.124Z,100.00
2022-12-20T04:10:59.416Z,100.00
2022-12-20T04:13:27.251Z,100.00
2022-12-20T04:15:59.999Z,100.00
2022-12-20T04:18:28.700Z,100.00
2022-12-20T04:20:56.573Z,100.00
2022-12-20T04:23:24.414Z,100.00
2022-12-20T04:25:53.826Z,100.00
2022-12-20T04:28:21.777Z,100.00
2022-12-20T04:30:50.228Z,100.00
2022-12-20T04:33:18.092Z,100.00
2022-12-20T04:35:46.014Z,100.00
2022-12-20T04:38:13.902Z,100.00
2022-12-20T04:40:41.799Z,100.00
2022-12-20T04:43:11.128Z,100.00
2022-12-20T04:45:39.043Z,100.00
2022-12-20T04:48:37.195Z,100.00
2022-12-20T04:50:56.031Z,100.00
2022-12-20T04:53:41.759Z,100.00
2022-12-20T04:56:09.932Z,100.00
2022-12-20T04:58:39.148Z,100.00
2022-12-20T05:01:07.047Z,100.00
2022-12-20T05:03:34.995Z,100.00
2022-12-20T05:06:03.106Z,100.00
2022-12-20T05:08:31.046Z,100.00
2022-12-20T05:10:58.929Z,100.00
2022-12-20T05:13:26.872Z,100.00
2022-12-20T05:15:57.102Z,100.00
2022-12-20T05:18:25.318Z,100.00
2022-12-20T05:21:16.566Z,100.00
2022-12-20T05:24:02.610Z,100.00
2022-12-20T05:26:33.187Z,100.00
2022-12-20T05:29:01.032Z,100.00
2022-12-20T05:31:30.580Z,100.00
2022-12-20T05:33:58.498Z,100.00
2022-12-20T05:36:26.412Z,100.00
2022-12-20T05:38:58.214Z,100.00
2022-12-20T05:41:31.405Z,100.00
2022-12-20T05:43:59.396Z,100.00
2022-12-20T05:46:27.477Z,100.00
2022-12-20T05:48:56.759Z,100.00
2022-12-20T05:51:24.724Z,100.00
2022-12-20T05:53:52.597Z,100.00
2022-12-20T05:56:20.441Z,100.00
2022-12-20T05:58:48.648Z,100.00
2022-12-20T06:01:16.593Z,100.00
2022-12-20T06:03:45.806Z,100.00
2022-12-20T13:57:27.201Z,49.92
2022-12-20T14:00:03.583Z,49.89
2022-12-20T14:02:37.764Z,50.85
2022-12-20T14:05:14.778Z,51.33
2022-12-20T14:07:43.702Z,51.91
2022-12-20T14:10:20.861Z,52.02
2022-12-20T14:12:54.438Z,51.80
2022-12-20T14:15:33.531Z,51.16
2022-12-20T14:18:07.112Z,52.37
2022-12-20T14:20:37.109Z,52.23
2022-12-20T14:23:07.173Z,52.73
2022-12-20T14:25:43.354Z,52.73
2022-12-20T14:28:26.970Z,53.24
2022-12-20T14:30:56.970Z,53.55
2022-12-20T14:33:31.386Z,53.90
2022-12-20T14:36:08.225Z,53.95
2022-12-20T14:38:36.209Z,53.95
2022-12-20T14:41:04.251Z,55.03
2022-12-20T14:43:37.913Z,55.04
2022-12-20T14:46:20.115Z,55.85
2022-12-20T14:48:48.259Z,55.98
2022-12-20T14:51:22.139Z,56.41
2022-12-20T14:53:53.367Z,57.29
2022-12-20T14:56:31.318Z,57.11
2022-12-20T14:59:07.991Z,57.27
2022-12-20T15:01:41.727Z,57.62
2022-12-20T15:04:24.274Z,58.52
2022-12-20T15:06:53.358Z,58.51
2022-12-20T15:09:21.730Z,58.84
2022-12-20T15:11:51.612Z,60.23
2022-12-20T15:14:33.006Z,59.20
2022-12-20T15:17:01.208Z,59.26
2022-12-20T15:19:31.334Z,59.88
2022-12-20T15:21:59.350Z,60.79
2022-12-20T15:24:28.780Z,61.59
2022-12-20T15:26:57.704Z,62.19
2022-12-20T15:29:28.783Z,62.65
2022-12-20T15:32:05.348Z,63.78
2022-12-20T15:34:36.532Z,63.44
2022-12-20T15:37:05.887Z,63.83
2022-12-20T15:39:34.832Z,65.03
2022-12-20T15:42:05.745Z,65.29
2022-12-20T15:44:36.164Z,66.18
2022-12-20T15:47:04.543Z,67.40
2022-12-20T15:49:33.574Z,67.43
2022-12-20T15:52:01.461Z,69.35
2022-12-20T15:54:31.491Z,70.23
2022-12-20T15:57:02.933Z,71.30
2022-12-20T16:02:24.644Z,73.63
2022-12-20T16:04:53.531Z,75.44
2022-12-20T16:07:21.833Z,76.32
2022-12-20T16:09:49.870Z,77.38
2022-12-20T16:12:20.438Z,79.30
2022-12-20T16:14:48.514Z,80.52
2022-12-20T16:17:17.088Z,81.89
2022-12-20T16:19:47.337Z,82.96
2022-12-20T16:22:17.550Z,83.12
2022-12-20T16:24:46.325Z,83.81
2022-12-20T16:27:14.271Z,85.03
2022-12-20T16:29:42.412Z,86.33
2022-12-20T16:32:15.563Z,87.79
2022-12-20T16:34:43.835Z,88.48
2022-12-20T16:37:13.192Z,88.72
2022-12-20T16:39:41.425Z,89.77
2022-12-20T16:42:14.915Z,92.24
2022-12-20T16:44:45.330Z,93.59
2022-12-20T16:47:14.653Z,94.07
2022-12-20T16:49:49.650Z,94.97
2022-12-20T16:52:22.880Z,95.94
2022-12-20T16:54:51.348Z,96.50
2022-12-20T16:57:19.718Z,96.80
2022-12-20T16:59:47.683Z,97.55
2022-12-20T17:02:23.668Z,98.70
2022-12-20T17:04:52.101Z,98.53
2022-12-20T17:07:21.424Z,98.62
2022-12-20T17:12:34.756Z,99.66
2022-12-20T17:15:03.100Z,98.92
2022-12-20T17:17:30.950Z,99.54
2022-12-20T17:19:58.960Z,99.37
2022-12-20T17:25:20.806Z,99.01
2022-12-20T17:27:48.843Z,99.04
2022-12-20T17:30:17.021Z,98.59
2022-12-20T17:32:45.618Z,98.16
2022-12-20T17:35:30.439Z,97.67
2022-12-20T17:38:01.863Z,97.72
2022-12-20T17:40:30.454Z,98.39
2022-12-20T17:42:58.335Z,97.79
2022-12-20T17:45:29.801Z,97.87
2022-12-20T17:47:58.781Z,98.17
2022-12-20T17:50:27.829Z,97.78
2022-12-20T17:52:55.879Z,98.24
2022-12-20T17:55:27.536Z,98.36
2022-12-20T17:57:56.357Z,97.73
2022-12-20T18:00:29.636Z,98.33
2022-12-20T18:03:02.759Z,98.76
2022-12-20T18:05:31.005Z,98.60
2022-12-20T18:07:58.948Z,99.13
2022-12-20T18:10:28.276Z,99.51
2022-12-20T18:12:56.400Z,98.86
2022-12-20T18:15:24.386Z,98.69
2022-12-20T18:17:52.259Z,98.58
2022-12-20T18:20:20.305Z,98.91
2022-12-20T18:22:48.253Z,98.50
2022-12-20T18:25:18.332Z,98.84
2022-12-20T18:27:47.822Z,99.31
2022-12-20T18:30:15.954Z,99.56
2022-12-20T18:32:43.830Z,99.26
2022-12-20T18:35:12.052Z,99.14
2022-12-20T18:37:39.925Z,98.86
2022-12-20T18:40:09.680Z,99.62
2022-12-20T18:42:37.833Z,99.73
2022-12-20T18:45:08.212Z,99.60
2022-12-20T18:47:37.678Z,99.46
2022-12-20T18:50:06.881Z,99.14
2022-12-20T18:52:34.839Z,99.48
2022-12-20T18:55:02.813Z,99.57
2022-12-20T18:57:30.863Z,99.85
2022-12-20T18:59:58.892Z,100.00
2022-12-20T19:02:28.587Z,99.95
2022-12-20T19:04:57.828Z,100.00
2022-12-20T19:07:25.951Z,100.00
2022-12-20T19:09:53.991Z,100.00
2022-12-20T19:12:21.981Z,100.00
2022-12-20T19:14:50.221Z,100.00
2022-12-20T19:17:18.206Z,100.00
2022-12-20T19:19:47.724Z,100.00
2022-12-20T19:22:15.620Z,100.00
2022-12-20T19:24:43.539Z,100.00
2022-12-20T19:27:11.423Z,100.00
2022-12-20T19:29:39.333Z,100.00
2022-12-20T19:32:07.211Z,100.00
2022-12-20T19:34:35.164Z,100.00
2022-12-20T19:37:04.416Z,100.00
2022-12-20T19:39:32.276Z,100.00
2022-12-20T19:42:22.891Z,100.00
2022-12-20T19:44:48.664Z,100.00
2022-12-20T19:47:16.629Z,100.00
2022-12-20T19:49:44.503Z,100.00
2022-12-20T19:52:13.776Z,100.00
2022-12-20T19:54:43.289Z,100.00
2022-12-20T19:57:11.284Z,100.00
2022-12-20T19:59:39.129Z,100.00
2022-12-20T20:02:07.791Z,100.00
2022-12-20T20:04:35.898Z,100.00
2022-12-20T20:07:04.618Z,100.00
2022-12-20T20:09:34.015Z,100.00
2022-12-20T20:12:02.004Z,100.00
2022-12-20T20:14:30.412Z,100.00
2022-12-20T20:16:58.565Z,100.00
2022-12-20T20:19:26.527Z,100.00
2022-12-20T20:21:54.396Z,100.00
2022-12-20T20:24:22.400Z,100.00
2022-12-20T20:26:51.735Z,100.00
2022-12-20T20:29:20.368Z,100.00
2022-12-20T20:31:48.488Z,100.00
2022-12-20T20:34:16.396Z,100.00
2022-12-20T20:36:44.258Z,100.00
2022-12-20T20:39:12.348Z,100.00
2022-12-20T20:41:40.824Z,100.00
2022-12-20T20:44:11.800Z,100.00
2022-12-20T20:46:39.770Z,100.00
2022-12-20T20:49:07.715Z,100.00
2022-12-20T20:51:35.602Z,100.00
2022-12-20T20:54:03.486Z,100.00
2022-12-20T20:56:31.488Z,100.00
2022-12-20T20:59:05.860Z,100.00
2022-12-20T21:01:37.617Z,100.00
2022-12-20T21:04:06.415Z,100.00
2022-12-20T21:06:40.929Z,100.00
2022-12-20T21:09:09.628Z,100.00
2022-12-20T21:11:37.836Z,100.00
2022-12-20T21:14:05.974Z,100.00
2022-12-20T21:16:35.453Z,100.00
2022-12-20T21:19:05.730Z,100.00
2022-12-20T21:21:33.700Z,100.00
2022-12-20T21:24:01.587Z,100.00
2022-12-20T21:26:29.467Z,100.00
2022-12-20T21:28:58.862Z,100.00
2022-12-20T21:31:26.822Z,100.00
2022-12-20T21:33:55.721Z,100.00
2022-12-20T21:36:25.129Z,100.00
2022-12-20T21:38:55.659Z,100.00
2022-12-20T21:41:25.770Z,100.00
2022-12-20T21:43:57.750Z,100.00
2022-12-20T21:46:26.035Z,100.00
2022-12-20T21:48:54.012Z,100.00
2022-12-20T21:51:26.508Z,100.00
2022-12-20T21:53:56.174Z,100.00
2022-12-20T21:56:25.260Z,100.00
2022-12-20T21:58:53.188Z,100.00
2022-12-20T22:01:23.263Z,100.00
2022-12-20T22:03:52.450Z,100.00
2022-12-20T22:06:20.957Z,100.00
2022-12-20T22:08:50.704Z,100.00
2022-12-20T22:11:19.871Z,100.00
2022-12-20T22:13:48.328Z,100.00
2022-12-20T22:16:18.161Z,100.00
2022-12-20T22:18:50.153Z,100.00
2022-12-20T22:21:21.577Z,100.00
2022-12-20T22:23:51.191Z,100.00
2022-12-20T22:26:21.545Z,100.00
2022-12-20T22:28:51.738Z,100.00
2022-12-20T22:31:20.374Z,100.00
2022-12-20T22:33:49.465Z,100.00
2022-12-20T22:36:17.752Z,100.00
2022-12-20T22:38:46.061Z,100.00
2022-12-20T22:41:17.750Z,100.00
2022-12-20T22:43:47.350Z,100.00
2022-12-20T22:46:16.984Z,100.00
2022-12-20T22:48:45.713Z,100.00
2022-12-20T22:51:15.563Z,100.00
2022-12-20T22:53:44.291Z,100.00
2022-12-20T22:56:13.148Z,100.00
2022-12-20T22:58:42.328Z,100.00
2022-12-20T23:01:13.075Z,100.00
2022-12-20T23:03:41.453Z,100.00
2022-12-20T23:06:12.845Z,100.00
2022-12-20T23:08:40.919Z,100.00
2022-12-20T23:11:49.342Z,100.00
2022-12-20T23:14:38.003Z,100.00
2022-12-20T23:17:07.107Z,100.00
2022-12-20T23:20:04.123Z,100.00
2022-12-20T23:22:48.721Z,100.00
2022-12-20T23:25:19.191Z,100.00
2022-12-20T23:27:49.276Z,100.00
2022-12-20T23:30:22.599Z,100.00
2022-12-20T23:32:50.531Z,100.00
2022-12-20T23:35:20.763Z,100.00
2022-12-20T23:37:49.419Z,100.00
2022-12-20T23:40:18.144Z,100.00
2022-12-20T23:42:46.307Z,100.00
2022-12-20T23:45:14.582Z,100.00
2022-12-20T23:47:43.761Z,100.00
2022-12-20T23:50:12.142Z,100.00
2022-12-20T23:52:40.550Z,100.00
2022-12-20T23:55:09.721Z,100.00
2022-12-20T23:57:37.645Z,100.00
